Terminal Aerodrome Forecast
Issued by NWS Louisville, KY

Home | Current Version | Previous Version | Text Only | Print | Product List | Glossary On
Versions: 1 2 3 4 5 6 7 8 9 10 11 12 13 14 15
000
FTUS43 KLMK 281126
TAFLEX
TAF
KLEX 281126Z 2812/2912 VRB03KT P6SM SKC
     FM281700 04004KT P6SM FEW040 SCT250
     FM290100 04004KT P6SM SCT250
      TEMPO 2909/2912 5SM BR=

USA.gov is the U.S. government's official web portal to all federal, state and local government web resources and services.